Time;durP1;ratioP1;P1;durP2;ratioP2;P2;SDS_P1;SDS_P2;PMS_P1;PMS_P2;Temp;Humidity;BMP_temperature;BMP_pressure;BME280_temperature;BME280_humidity;BME280_pressure;Samples;Min_cycle;Max_cycle;Signal;HPM_P1;HPM_P2
2021/08/13 00:02:03;;;;;;;3.87;3.40;;;;;;;22.56;100.00;97832.13;4987915;28;20726;-61
2021/08/13 00:04:30;;;;;;;4.87;3.40;;;;;;;22.58;100.00;97827.06;4988405;28;20220;-62
2021/08/13 00:06:57;;;;;;;4.13;3.40;;;;;;;22.57;100.00;97830.47;4988062;28;20238;-64
2021/08/13 00:09:23;;;;;;;3.40;3.10;;;;;;;22.57;100.00;97833.03;4986983;28;20653;-60
2021/08/13 00:11:50;;;;;;;6.40;3.60;;;;;;;22.57;100.00;97828.78;4979394;28;20203;-60
2021/08/13 00:14:16;;;;;;;3.00;2.80;;;;;;;22.55;100.00;97826.97;4985438;28;20708;-62
2021/08/13 00:16:43;;;;;;;4.67;3.20;;;;;;;22.52;100.00;97819.19;4989115;28;20199;-61
2021/08/13 00:19:10;;;;;;;3.23;2.93;;;;;;;22.53;100.00;97815.84;4986731;28;20226;-62
2021/08/13 00:21:36;;;;;;;3.60;3.30;;;;;;;22.52;100.00;97814.06;4981966;28;20239;-60
2021/08/13 00:24:03;;;;;;;4.23;3.43;;;;;;;22.50;100.00;97814.03;4988125;28;20231;-63
2021/08/13 00:26:30;;;;;;;3.43;3.13;;;;;;;22.49;100.00;97813.94;4985218;28;20290;-64
2021/08/13 00:28:56;;;;;;;3.20;2.90;;;;;;;21.91;100.00;97728.53;4981029;28;20618;-62
2021/08/13 00:31:23;;;;;;;3.73;3.40;;;;;;;22.49;100.00;97819.06;4982555;28;20267;-60
2021/08/13 00:33:50;;;;;;;3.60;3.30;;;;;;;22.47;100.00;97810.50;4982274;28;20604;-62
2021/08/13 00:36:16;;;;;;;3.60;3.30;;;;;;;22.49;100.00;97824.19;4985547;28;20255;-61
2021/08/13 00:38:43;;;;;;;4.17;3.20;;;;;;;22.49;100.00;97819.94;4981545;28;20242;-64
2021/08/13 00:41:09;;;;;;;3.70;3.40;;;;;;;22.49;100.00;97821.63;4983306;28;20234;-61
2021/08/13 00:43:36;;;;;;;3.43;3.13;;;;;;;22.49;100.00;97825.06;4984904;28;20254;-60
2021/08/13 00:46:02;;;;;;;3.00;2.80;;;;;;;22.48;100.00;97825.91;4982174;28;20373;-62
2021/08/13 00:48:29;;;;;;;3.47;3.17;;;;;;;22.51;100.00;97837.97;4984580;28;20196;-61
2021/08/13 00:50:56;;;;;;;3.60;3.30;;;;;;;22.45;100.00;97827.50;4984162;28;20254;-62
2021/08/13 00:53:22;;;;;;;3.63;3.33;;;;;;;22.51;100.00;97837.97;4983751;28;20298;-62
2021/08/13 00:55:50;;;;;;;3.60;3.30;;;;;;;22.52;100.00;97840.56;4984363;28;20257;-62
2021/08/13 00:58:17;;;;;;;3.47;3.17;;;;;;;22.53;100.00;97851.69;4985067;28;20807;-60
2021/08/13 01:00:44;;;;;;;3.60;3.10;;;;;;;22.52;100.00;97857.63;4984507;28;20598;-61
2021/08/13 01:03:10;;;;;;;3.60;3.30;;;;;;;22.53;100.00;97865.34;4976262;28;20597;-61
2021/08/13 01:05:37;;;;;;;4.37;3.20;;;;;;;22.53;100.00;97867.06;4979544;28;20633;-62
2021/08/13 01:08:04;;;;;;;3.63;3.33;;;;;;;22.54;100.00;97871.34;4982392;28;20619;-62
2021/08/13 01:10:32;;;;;;;3.83;3.43;;;;;;;22.53;100.00;97873.03;4978878;28;20290;-60
2021/08/13 01:13:08;;;;;;;3.67;3.37;;;;;;;22.54;100.00;97869.66;4977055;28;20731;-61
2021/08/13 01:15:36;;;;;;;3.37;3.03;;;;;;;22.54;100.00;97882.47;4989212;28;20195;-61
2021/08/13 01:18:33;;;;;;;3.77;3.47;;;;;;;22.54;100.00;97882.47;4978155;28;20203;-64
2021/08/13 01:21:02;;;;;;;3.43;3.13;;;;;;;22.54;100.00;97885.03;4970170;28;20328;-59
2021/08/13 01:23:45;;;;;;;4.10;3.70;;;;;;;22.55;100.00;97885.88;4982806;28;20481;-61
2021/08/13 01:26:11;;;;;;;3.80;3.43;;;;;;;22.55;100.00;97888.44;4980951;28;20629;-63
2021/08/13 01:28:53;;;;;;;3.83;3.33;;;;;;;22.55;100.00;97891.88;4979040;28;20249;-62
2021/08/13 01:31:21;;;;;;;3.50;3.20;;;;;;;22.51;100.00;97889.19;4987455;28;20634;-63
2021/08/13 01:33:51;;;;;;;3.50;3.20;;;;;;;22.46;100.00;97888.13;4979979;28;20226;-62
2021/08/13 01:36:17;;;;;;;4.10;3.23;;;;;;;22.55;100.00;97901.25;4986359;28;20245;-63
2021/08/13 01:38:44;;;;;;;3.87;3.47;;;;;;;22.55;100.00;97903.81;4968300;28;20238;-61
2021/08/13 01:41:12;;;;;;;3.73;3.37;;;;;;;22.55;100.00;97897.00;4987036;28;20231;-63
2021/08/13 01:43:38;;;;;;;3.60;3.30;;;;;;;22.55;100.00;97901.25;4983764;28;20659;-61
2021/08/13 01:46:05;;;;;;;3.37;3.07;;;;;;;22.53;100.00;97908.88;4967379;28;20298;-61
2021/08/13 01:48:33;;;;;;;3.43;3.13;;;;;;;22.56;100.00;97910.69;4985181;28;20647;-60
2021/08/13 01:51:00;;;;;;;3.27;3.00;;;;;;;22.39;100.00;97873.41;4975721;28;20234;-61
2021/08/13 01:53:26;;;;;;;3.67;3.20;;;;;;;22.56;100.00;97913.25;4970078;28;20639;-62
2021/08/13 01:55:53;;;;;;;3.60;3.30;;;;;;;22.56;100.00;97916.66;4981408;28;20639;-62
2021/08/13 01:58:19;;;;;;;3.30;3.07;;;;;;;22.56;100.00;97916.66;4986211;28;20294;-63
2021/08/13 02:00:46;;;;;;;3.50;3.20;;;;;;;22.49;100.00;97903.59;4971747;28;20234;-61
2021/08/13 02:03:13;;;;;;;4.93;3.27;;;;;;;22.50;100.00;97893.44;4971349;28;20220;-60
2021/08/13 02:05:40;;;;;;;3.60;3.30;;;;;;;22.53;100.00;97890.13;4987070;28;20695;-62
2021/08/13 02:08:07;;;;;;;3.37;3.07;;;;;;;22.50;100.00;97887.41;4988290;28;20245;-60
2021/08/13 02:10:35;;;;;;;3.97;3.50;;;;;;;22.50;100.00;97892.53;4982445;28;20238;-61
2021/08/13 02:13:03;;;;;;;3.73;3.43;;;;;;;22.42;100.00;97882.06;4988390;28;20227;-61
2021/08/13 02:15:29;;;;;;;3.73;3.43;;;;;;;22.45;100.00;97897.53;4980498;28;20487;-60
2021/08/13 02:18:02;;;;;;;3.67;3.37;;;;;;;22.47;100.00;97900.13;4981709;28;20206;-60
2021/08/13 02:20:29;;;;;;;3.77;2.90;;;;;;;22.47;100.00;97898.41;4987285;28;20237;-63
2021/08/13 02:22:57;;;;;;;3.60;3.30;;;;;;;22.48;100.00;97901.88;4984771;28;20310;-60
2021/08/13 02:25:24;;;;;;;3.63;3.33;;;;;;;22.43;100.00;97898.28;4979679;28;20210;-61
2021/08/13 02:27:50;;;;;;;3.50;3.20;;;;;;;22.48;100.00;97894.19;4986143;28;20231;-60
2021/08/13 02:30:17;;;;;;;3.67;3.37;;;;;;;22.48;100.00;97892.50;4980943;28;20295;-61
2021/08/13 02:32:45;;;;;;;3.43;3.13;;;;;;;22.49;100.00;97896.78;4987118;28;20231;-62
2021/08/13 02:35:12;;;;;;;3.43;3.13;;;;;;;22.45;100.00;97879.59;4980980;28;20656;-61
2021/08/13 02:38:20;;;;;;;4.00;3.30;;;;;;;22.50;100.00;97889.97;4981447;28;20253;-61
2021/08/13 02:40:50;;;;;;;3.97;3.33;;;;;;;22.51;100.00;97882.38;4951292;28;20243;-61
2021/08/13 02:43:21;;;;;;;3.17;2.90;;;;;;;22.51;100.00;97877.25;4981513;28;20265;-64
2021/08/13 02:45:47;;;;;;;3.40;3.10;;;;;;;22.52;100.00;97885.78;4979747;28;20504;-60
2021/08/13 02:48:15;;;;;;;3.47;3.17;;;;;;;22.51;100.00;97874.69;4980844;28;20199;-62
2021/08/13 02:50:41;;;;;;;4.00;3.10;;;;;;;22.52;100.00;97889.22;4985039;28;20204;-60
2021/08/13 02:55:44;;;;;;;3.50;3.20;;;;;;;22.53;100.00;97874.75;5027702;23;20238;-61
2021/08/13 02:58:11;;;;;;;3.30;3.03;;;;;;;22.53;100.00;97878.16;5023067;28;20674;-63
2021/08/13 03:00:38;;;;;;;3.70;3.10;;;;;;;22.53;100.00;97873.03;5007832;28;20640;-61
2021/08/13 03:03:05;;;;;;;3.40;3.10;;;;;;;22.54;100.00;97863.66;5024486;28;20225;-60
2021/08/13 03:05:32;;;;;;;3.57;3.27;;;;;;;22.44;100.00;97854.78;5011340;28;20267;-61
2021/08/13 03:07:59;;;;;;;3.37;3.07;;;;;;;22.55;100.00;97860.28;5010496;28;20234;-64
2021/08/13 03:10:25;;;;;;;3.60;3.30;;;;;;;22.55;100.00;97863.72;5019709;28;20229;-60
2021/08/13 03:12:52;;;;;;;3.40;3.10;;;;;;;22.48;100.00;97854.06;5016584;28;20633;-62
2021/08/13 03:15:19;;;;;;;3.37;3.07;;;;;;;22.51;100.00;97850.75;5002988;28;20288;-61
2021/08/13 03:17:46;;;;;;;3.60;3.30;;;;;;;22.55;100.00;97862.84;5008065;28;20229;-65
2021/08/13 03:20:13;;;;;;;3.60;3.30;;;;;;;22.50;100.00;97852.44;5018672;28;20221;-61
2021/08/13 03:22:39;;;;;;;3.30;3.10;;;;;;;22.52;100.00;97855.06;5014190;28;20322;-61
2021/08/13 03:25:06;;;;;;;3.50;3.20;;;;;;;22.55;100.00;97855.16;5002558;28;20230;-63
2021/08/13 03:27:33;;;;;;;3.67;3.37;;;;;;;22.55;100.00;97863.72;5013314;28;20233;-61
2021/08/13 03:30:00;;;;;;;3.13;2.93;;;;;;;22.56;100.00;97874.84;5015131;28;20218;-61
2021/08/13 03:32:26;;;;;;;4.03;3.30;;;;;;;22.44;100.00;97857.34;5021683;28;20253;-63
2021/08/13 03:34:53;;;;;;;3.57;3.27;;;;;;;22.51;100.00;97869.56;4997454;28;20703;-60
2021/08/13 03:37:19;;;;;;;3.20;2.90;;;;;;;22.56;100.00;97877.41;5017002;28;20237;-63
2021/08/13 03:39:47;;;;;;;3.97;3.57;;;;;;;22.56;100.00;97877.41;5023521;28;20240;-62
2021/08/13 03:42:13;;;;;;;3.57;3.27;;;;;;;22.56;100.00;97878.25;5018539;28;20245;-61
2021/08/13 03:44:40;;;;;;;3.33;3.10;;;;;;;22.56;100.00;97887.66;5023065;28;20260;-63
2021/08/13 03:47:06;;;;;;;3.50;3.20;;;;;;;22.50;100.00;97877.19;5018351;28;20289;-61
2021/08/13 03:49:33;;;;;;;3.57;3.27;;;;;;;22.53;100.00;97888.41;5015762;28;20291;-63
2021/08/13 03:52:00;;;;;;;3.30;3.00;;;;;;;22.53;100.00;97900.34;5017708;28;20194;-64
2021/08/13 03:54:26;;;;;;;3.60;3.30;;;;;;;22.51;100.00;97902.00;5022007;28;20253;-60
2021/08/13 03:56:53;;;;;;;3.23;2.93;;;;;;;22.49;100.00;97901.91;5017027;28;20288;-62
2021/08/13 03:59:19;;;;;;;3.47;3.17;;;;;;;22.48;100.00;97910.44;5015568;28;20225;-58
2021/08/13 04:01:49;;;;;;;3.33;3.03;;;;;;;22.47;100.00;97913.78;5017662;28;20198;-61
2021/08/13 04:04:16;;;;;;;3.30;3.00;;;;;;;22.47;100.00;97918.06;5013216;28;20249;-63
2021/08/13 04:06:42;;;;;;;6.83;3.40;;;;;;;22.47;100.00;97918.06;5019642;28;20199;-61
2021/08/13 04:09:09;;;;;;;3.50;3.20;;;;;;;22.43;100.00;97908.53;5018018;28;20516;-60
2021/08/13 04:11:36;;;;;;;3.73;3.40;;;;;;;22.44;100.00;97912.84;5017144;28;20225;-62
2021/08/13 04:14:04;;;;;;;3.20;3.00;;;;;;;22.43;100.00;97909.41;5017545;28;20657;-61
2021/08/13 04:16:31;;;;;;;5.37;3.27;;;;;;;22.43;100.00;97911.97;5025182;28;20233;-61
2021/08/13 04:18:57;;;;;;;3.40;3.10;;;;;;;22.43;100.00;97911.09;5015485;28;20276;-61
2021/08/13 04:21:24;;;;;;;3.40;3.10;;;;;;;22.43;100.00;97908.53;5010195;28;20228;-60
2021/08/13 04:23:50;;;;;;;3.67;3.37;;;;;;;22.42;100.00;97911.91;5013625;28;20254;-62
2021/08/13 04:26:17;;;;;;;3.53;3.23;;;;;;;22.42;100.00;97912.78;5015425;28;20248;-60
2021/08/13 04:28:43;;;;;;;5.53;3.43;;;;;;;22.40;100.00;97911.88;5015901;28;20628;-64
2021/08/13 04:31:10;;;;;;;3.17;2.97;;;;;;;22.42;100.00;97911.91;5017951;28;20616;-61
2021/08/13 04:33:37;;;;;;;3.67;3.37;;;;;;;22.44;100.00;97915.41;5010383;28;20272;-63
2021/08/13 04:36:04;;;;;;;3.70;3.40;;;;;;;22.45;100.00;97919.69;5018093;28;20206;-61
2021/08/13 04:38:30;;;;;;;3.63;3.33;;;;;;;22.45;100.00;97919.69;5013767;28;20244;-61
2021/08/13 04:40:57;;;;;;;3.80;3.47;;;;;;;22.46;100.00;97913.75;5013776;28;20278;-61
2021/08/13 04:43:23;;;;;;;3.77;3.47;;;;;;;22.48;100.00;97918.13;5007430;28;20301;-63
2021/08/13 04:45:50;;;;;;;3.53;3.23;;;;;;;22.48;100.00;97920.69;5002722;28;20286;-60
2021/08/13 04:48:17;;;;;;;3.40;3.07;;;;;;;22.49;100.00;97924.09;5006636;28;20202;-63
2021/08/13 04:50:43;;;;;;;3.33;3.03;;;;;;;22.46;100.00;97917.19;5005676;28;20226;-61
2021/08/13 04:53:10;;;;;;;3.70;3.40;;;;;;;21.97;100.00;97834.53;5006520;28;20231;-60
2021/08/13 04:55:36;;;;;;;3.80;3.40;;;;;;;22.48;100.00;97925.78;5004229;28;20316;-62
2021/08/13 04:58:03;;;;;;;3.60;3.30;;;;;;;22.35;100.00;97905.72;4988498;28;20479;-61
2021/08/13 05:00:29;;;;;;;3.57;3.27;;;;;;;22.55;100.00;97939.69;5004444;28;20645;-62
2021/08/13 05:02:56;;;;;;;3.40;3.10;;;;;;;22.56;100.00;97944.00;4999738;28;20295;-61
2021/08/13 05:05:25;;;;;;;3.37;3.07;;;;;;;22.57;100.00;97946.63;5008945;28;20708;-61
2021/08/13 05:07:51;;;;;;;3.57;3.27;;;;;;;22.56;100.00;97941.44;5001794;28;20253;-62
2021/08/13 05:10:18;;;;;;;3.30;3.10;;;;;;;22.58;100.00;97953.47;5006694;28;20288;-63
2021/08/13 05:12:45;;;;;;;4.03;3.63;;;;;;;22.60;100.00;97948.38;5003127;28;20478;-61
2021/08/13 05:15:12;;;;;;;3.20;3.00;;;;;;;22.60;100.00;97944.16;5004698;28;20663;-64
2021/08/13 05:17:39;;;;;;;3.53;3.23;;;;;;;22.61;100.00;97957.81;5008663;28;20209;-62
2021/08/13 05:20:06;;;;;;;3.40;3.10;;;;;;;22.62;100.00;97959.56;5003415;28;20234;-61
2021/08/13 05:22:34;;;;;;;3.60;3.10;;;;;;;22.63;100.00;97959.63;5007103;28;20233;-61
2021/08/13 05:25:08;;;;;;;3.53;3.23;;;;;;;22.64;100.00;97973.28;5004626;28;20712;-65
2021/08/13 05:27:35;;;;;;;3.37;3.07;;;;;;;22.62;100.00;97970.66;5006358;28;20240;-60
2021/08/13 05:30:03;;;;;;;4.97;3.00;;;;;;;22.64;100.00;97975.84;5002312;28;20668;-61
2021/08/13 05:32:29;;;;;;;3.40;3.10;;;;;;;22.65;100.00;97973.31;5008274;28;20233;-64
2021/08/13 05:34:56;;;;;;;3.73;3.43;;;;;;;22.66;100.00;97971.63;5005369;28;20214;-61
2021/08/13 05:37:22;;;;;;;3.50;3.20;;;;;;;22.65;100.00;97967.34;5003010;28;20618;-60
2021/08/13 05:39:49;;;;;;;3.70;3.40;;;;;;;22.66;100.00;97980.22;5005469;28;20218;-62
2021/08/13 05:42:15;;;;;;;3.20;3.00;;;;;;;22.64;100.00;97980.97;5007708;28;20285;-59
2021/08/13 05:44:42;;;;;;;3.60;3.30;;;;;;;22.65;100.00;97967.34;5006381;28;20666;-63
2021/08/13 05:47:09;;;;;;;3.10;2.90;;;;;;;22.69;100.00;97974.31;5004381;28;20713;-60
2021/08/13 05:49:35;;;;;;;3.50;3.20;;;;;;;22.67;100.00;97960.56;5008709;28;20261;-60
2021/08/13 05:52:02;;;;;;;3.50;3.20;;;;;;;22.62;100.00;97941.63;5010333;28;20285;-63
2021/08/13 05:54:30;;;;;;;3.60;3.30;;;;;;;22.69;100.00;97969.19;5007875;28;20226;-62
2021/08/13 05:56:57;;;;;;;3.80;3.40;;;;;;;22.64;100.00;97978.41;5005362;28;20206;-63
2021/08/13 05:59:24;;;;;;;3.87;3.57;;;;;;;22.70;100.00;97993.97;5006993;28;20221;-64
2021/08/13 06:01:51;;;;;;;3.53;3.23;;;;;;;22.70;100.00;98004.22;4999759;28;20934;-61
2021/08/13 06:04:17;;;;;;;3.50;3.23;;;;;;;22.69;100.00;97998.25;5014034;28;20286;-63
2021/08/13 06:06:44;;;;;;;4.43;3.13;;;;;;;22.70;100.00;98011.91;5013602;28;20309;-61
2021/08/13 06:09:11;;;;;;;3.07;2.80;;;;;;;22.72;100.00;98015.41;5012689;28;20202;-63
2021/08/13 06:11:37;;;;;;;3.77;3.40;;;;;;;22.70;100.00;98011.91;5012004;28;20240;-61
2021/08/13 06:14:04;;;;;;;3.67;3.37;;;;;;;22.70;100.00;98028.16;5012544;28;20214;-64
2021/08/13 06:16:30;;;;;;;3.77;3.47;;;;;;;22.71;100.00;98040.13;5014313;28;20220;-61
2021/08/13 06:18:57;;;;;;;3.43;3.13;;;;;;;22.71;100.00;98059.78;5017573;28;20220;-64
2021/08/13 06:21:24;;;;;;;3.33;3.03;;;;;;;22.71;100.00;98050.38;5014386;28;20222;-63
2021/08/13 06:23:50;;;;;;;3.70;3.40;;;;;;;22.66;100.00;98046.81;5012891;28;20253;-62
2021/08/13 06:26:17;;;;;;;3.53;3.23;;;;;;;22.71;100.00;98058.06;5017610;28;20248;-63
2021/08/13 06:28:43;;;;;;;3.53;3.20;;;;;;;22.71;100.00;98057.22;5014489;28;20209;-62
2021/08/13 06:31:10;;;;;;;3.60;3.30;;;;;;;22.71;100.00;98049.53;5013250;28;20206;-63
2021/08/13 06:33:37;;;;;;;3.30;3.00;;;;;;;22.72;100.00;98058.97;5010607;28;20221;-64
2021/08/13 06:36:03;;;;;;;3.60;3.30;;;;;;;22.71;100.00;98050.38;5014832;28;20237;-65
2021/08/13 06:38:32;;;;;;;3.70;3.20;;;;;;;22.68;100.00;98037.47;5012796;28;20233;-60
2021/08/13 06:40:59;;;;;;;3.37;3.13;;;;;;;22.72;100.00;98030.78;5006777;28;20234;-64
2021/08/13 06:43:25;;;;;;;3.30;3.00;;;;;;;22.72;100.00;98030.78;5012425;28;20296;-64
2021/08/13 06:45:52;;;;;;;3.33;3.03;;;;;;;22.72;100.00;98041.91;5005014;28;20230;-62
2021/08/13 06:48:18;;;;;;;3.70;3.40;;;;;;;22.71;100.00;98029.03;5013092;28;20206;-61
2021/08/13 06:50:45;;;;;;;3.80;3.40;;;;;;;22.72;100.00;98023.97;5010533;28;20682;-60
2021/08/13 06:53:11;;;;;;;3.53;3.23;;;;;;;22.70;100.00;98022.16;5007801;28;20233;-62
2021/08/13 06:55:38;;;;;;;3.33;3.07;;;;;;;22.71;100.00;98027.31;5014975;28;20512;-62
2021/08/13 06:58:05;;;;;;;3.40;3.10;;;;;;;22.68;100.00;98018.69;5012032;28;20229;-61
2021/08/13 07:00:31;;;;;;;3.37;3.07;;;;;;;22.68;100.00;98016.97;5011896;28;20622;-61
2021/08/13 07:02:58;;;;;;;3.67;3.37;;;;;;;22.67;100.00;98014.38;5013106;28;20707;-63
2021/08/13 07:05:25;;;;;;;3.63;3.33;;;;;;;22.72;100.00;98028.22;5021938;28;20279;-61
2021/08/13 07:07:52;;;;;;;3.63;3.33;;;;;;;22.72;100.00;98031.66;5013222;28;20276;-64
2021/08/13 07:10:20;;;;;;;3.70;3.40;;;;;;;22.69;100.00;98030.66;5021897;28;20207;-62
2021/08/13 07:12:46;;;;;;;3.53;3.23;;;;;;;22.72;100.00;98026.53;5011824;28;20229;-61
2021/08/13 07:15:13;;;;;;;3.40;3.10;;;;;;;22.72;100.00;98018.84;5007801;28;20226;-61
2021/08/13 07:17:40;;;;;;;3.37;3.07;;;;;;;22.71;100.00;98019.63;5015394;28;20206;-61
2021/08/13 07:20:07;;;;;;;3.80;3.50;;;;;;;22.65;100.00;98022.00;5017187;28;20226;-65
2021/08/13 07:22:34;;;;;;;4.20;3.33;;;;;;;22.67;100.00;98029.75;5023256;28;20198;-62
2021/08/13 07:25:00;;;;;;;3.40;2.97;;;;;;;22.72;100.00;98038.47;5030250;28;20226;-63
2021/08/13 07:27:28;;;;;;;4.30;3.23;;;;;;;22.70;100.00;98033.28;5019052;28;20425;-66
2021/08/13 07:29:55;;;;;;;3.33;3.03;;;;;;;22.61;100.00;98007.38;5022011;28;20582;-63
2021/08/13 07:32:21;;;;;;;3.47;3.17;;;;;;;22.72;100.00;98015.41;4995805;28;20229;-61
2021/08/13 07:34:48;;;;;;;3.70;3.40;;;;;;;22.72;100.00;98030.78;5009552;28;20215;-63
2021/08/13 07:37:19;;;;;;;3.20;3.00;;;;;;;22.69;100.00;98023.00;5015429;28;20301;-62
2021/08/13 07:39:47;;;;;;;3.60;3.30;;;;;;;22.72;100.00;98035.91;5013886;28;20486;-60
2021/08/13 07:42:13;;;;;;;3.33;3.03;;;;;;;22.65;100.00;98006.63;5018911;28;20656;-61
2021/08/13 07:44:40;;;;;;;3.63;3.33;;;;;;;22.72;100.00;98017.97;5012204;28;20225;-64
2021/08/13 07:47:11;;;;;;;3.53;3.20;;;;;;;22.66;100.00;98031.44;5018307;28;20206;-60
2021/08/13 07:49:38;;;;;;;3.20;3.00;;;;;;;22.72;100.00;98054.72;5016582;28;20202;-61
2021/08/13 07:52:04;;;;;;;3.23;3.03;;;;;;;22.72;100.00;98048.72;5016227;28;20225;-60
2021/08/13 07:54:31;;;;;;;3.40;3.10;;;;;;;22.72;100.00;98047.03;5018811;28;20260;-62
2021/08/13 07:56:58;;;;;;;3.70;3.40;;;;;;;22.73;100.00;98048.75;5018090;28;20650;-64
2021/08/13 07:59:24;;;;;;;3.10;2.90;;;;;;;22.72;100.00;98054.72;5018361;28;20676;-61
2021/08/13 08:01:51;;;;;;;3.60;3.30;;;;;;;22.73;100.00;98056.44;5016161;28;20237;-63
2021/08/13 08:04:17;;;;;;;3.33;3.13;;;;;;;22.72;100.00;98057.28;5021815;28;20240;-64
2021/08/13 08:06:44;;;;;;;3.33;3.13;;;;;;;22.67;100.00;98045.13;5015647;28;20198;-63
2021/08/13 08:09:11;;;;;;;3.33;3.00;;;;;;;22.73;100.00;98061.56;5010626;28;20765;-62
2021/08/13 08:11:37;;;;;;;3.70;3.40;;;;;;;22.67;100.00;98053.69;5016501;28;20229;-62
2021/08/13 08:14:04;;;;;;;3.37;3.07;;;;;;;22.75;100.00;98066.75;5015801;28;20305;-63
2021/08/13 08:16:30;;;;;;;3.37;3.07;;;;;;;22.74;100.00;98057.31;5019729;28;20530;-64
2021/08/13 08:18:57;;;;;;;3.50;3.20;;;;;;;22.73;100.00;98059.00;5017649;28;20210;-65
2021/08/13 08:21:24;;;;;;;3.60;3.30;;;;;;;22.74;100.00;98063.31;5020030;28;20236;-63
2021/08/13 08:23:50;;;;;;;3.37;3.07;;;;;;;22.67;100.00;98057.94;5017276;28;20249;-61
2021/08/13 08:26:17;;;;;;;3.70;3.40;;;;;;;22.72;100.00;98069.22;5017631;28;20244;-61
2021/08/13 08:28:45;;;;;;;3.33;3.10;;;;;;;22.74;100.00;98076.13;5021176;28;20679;-62
2021/08/13 08:31:12;;;;;;;3.27;2.80;;;;;;;22.74;100.00;98077.81;5014400;28;20241;-65
2021/08/13 08:33:39;;;;;;;3.77;3.47;;;;;;;22.72;100.00;98077.78;5013852;28;20226;-62
2021/08/13 08:36:06;;;;;;;3.20;3.00;;;;;;;22.74;100.00;98082.94;5013818;28;20226;-63
2021/08/13 08:38:33;;;;;;;3.47;3.17;;;;;;;22.73;100.00;98076.94;5022203;28;20252;-61
2021/08/13 08:41:06;;;;;;;3.53;3.23;;;;;;;22.74;100.00;98075.28;5016808;28;20229;-65
2021/08/13 08:43:33;;;;;;;3.37;3.07;;;;;;;22.75;100.00;98072.75;5018961;28;20285;-59
2021/08/13 08:46:00;;;;;;;3.37;3.07;;;;;;;22.75;100.00;98069.31;5018516;28;20732;-60
2021/08/13 08:48:37;;;;;;;3.50;3.20;;;;;;;22.57;100.00;98035.41;5015949;28;20288;-63
2021/08/13 08:51:04;;;;;;;3.30;3.00;;;;;;;22.74;100.00;98070.13;5029259;28;20202;-63
2021/08/13 08:56:06;;;;;;;3.47;3.17;;;;;;;22.75;100.00;98077.00;5122950;22;20275;-60
2021/08/13 08:58:33;;;;;;;3.17;2.97;;;;;;;22.71;100.00;98070.88;5004420;28;20649;-60
2021/08/13 09:01:00;;;;;;;3.17;2.87;;;;;;;22.76;100.00;98081.28;4999056;28;20201;-61
2021/08/13 09:03:27;;;;;;;3.30;3.10;;;;;;;22.76;100.00;98073.59;5022107;28;20193;-61
2021/08/13 09:05:54;;;;;;;3.43;3.13;;;;;;;22.73;100.00;98071.81;5012318;28;20937;-62
2021/08/13 09:08:20;;;;;;;3.33;3.13;;;;;;;22.77;100.00;98073.66;5018936;28;20244;-61
2021/08/13 09:10:47;;;;;;;3.20;2.87;;;;;;;22.78;100.00;98079.66;5014428;28;20300;-61
2021/08/13 09:13:13;;;;;;;3.73;3.10;;;;;;;22.77;100.00;98065.97;5025118;28;20233;-60
2021/08/13 09:15:42;;;;;;;3.10;2.90;;;;;;;22.75;100.00;98065.06;5012353;28;20309;-61
2021/08/13 09:18:19;;;;;;;3.27;3.00;;;;;;;22.78;100.00;98061.72;4994131;28;20582;-61
2021/08/13 09:20:53;;;;;;;3.27;2.97;;;;;;;22.78;100.00;98057.47;5009963;28;20309;-60
2021/08/13 09:23:39;;;;;;;3.27;3.07;;;;;;;22.79;100.00;98055.75;5015547;28;20284;-60
2021/08/13 09:26:13;;;;;;;3.20;2.90;;;;;;;22.79;100.00;98058.31;5012569;28;20704;-60
2021/08/13 09:28:40;;;;;;;5.33;3.00;;;;;;;22.65;100.00;98033.97;5009982;28;20214;-60
2021/08/13 09:31:20;;;;;;;3.40;3.10;;;;;;;22.75;100.00;98049.69;5010854;28;20639;-62
2021/08/13 09:33:49;;;;;;;3.03;2.73;;;;;;;22.73;100.00;98045.31;5004950;28;20268;-60
2021/08/13 09:36:17;;;;;;;3.40;3.10;;;;;;;22.72;100.00;98046.16;5013254;28;20313;-60
2021/08/13 09:38:44;;;;;;;3.30;3.03;;;;;;;22.67;100.00;98042.56;5019365;28;20724;-61
2021/08/13 09:41:13;;;;;;;3.43;3.13;;;;;;;22.67;100.00;98043.44;5016734;28;20649;-60
2021/08/13 09:43:58;;;;;;;3.73;3.40;;;;;;;22.66;100.00;98053.63;5010805;28;20206;-61
2021/08/13 09:46:25;;;;;;;3.40;3.10;;;;;;;22.65;100.00;98057.88;5018976;28;20221;-60
2021/08/13 09:48:52;;;;;;;3.40;3.10;;;;;;;22.64;100.00;98060.38;5016246;28;20210;-60
2021/08/13 09:51:28;;;;;;;4.93;2.90;;;;;;;22.66;100.00;98061.31;5019020;28;20229;-60
2021/08/13 09:54:02;;;;;;;3.40;3.10;;;;;;;22.66;100.00;98053.63;5013449;28;20300;-61
2021/08/13 09:56:32;;;;;;;3.33;3.03;;;;;;;22.66;100.00;98066.44;5016412;28;21314;-61
2021/08/13 09:59:20;;;;;;;3.30;3.10;;;;;;;22.68;100.00;98069.94;5013557;28;20660;-60
2021/08/13 10:01:47;;;;;;;3.30;3.00;;;;;;;22.68;100.00;98073.34;5012299;28;20714;-61
2021/08/13 10:04:15;;;;;;;3.13;2.93;;;;;;;22.69;100.00;98071.66;5012018;28;20218;-61
2021/08/13 10:06:43;;;;;;;2.93;2.73;;;;;;;22.64;100.00;98056.16;5015678;28;20275;-60
2021/08/13 10:09:29;;;;;;;3.23;2.93;;;;;;;22.69;100.00;98054.63;5017124;28;20261;-60
2021/08/13 10:11:59;;;;;;;3.20;2.90;;;;;;;22.70;100.00;98056.34;5017887;28;20225;-61
2021/08/13 10:14:36;;;;;;;2.70;2.50;;;;;;;22.70;100.00;98066.59;5013405;28;20281;-60
2021/08/13 10:17:19;;;;;;;3.33;3.13;;;;;;;22.69;100.00;98069.09;5014750;28;20240;-61
2021/08/13 10:19:46;;;;;;;3.00;2.80;;;;;;;22.70;100.00;98061.47;5015069;28;20214;-60
2021/08/13 10:22:13;;;;;;;3.53;3.27;;;;;;;22.71;100.00;98057.22;5018282;28;20225;-61
2021/08/13 10:24:43;;;;;;;3.30;3.00;;;;;;;22.71;100.00;98057.22;5014587;28;20313;-60
2021/08/13 10:27:10;;;;;;;3.13;2.93;;;;;;;22.71;100.00;98046.97;5014307;28;20202;-61
2021/08/13 10:29:36;;;;;;;3.33;3.10;;;;;;;22.71;100.00;98046.97;5014807;28;20300;-61
2021/08/13 10:32:03;;;;;;;3.10;2.90;;;;;;;22.71;100.00;98049.53;5016183;28;20286;-62
2021/08/13 10:34:30;;;;;;;3.50;3.20;;;;;;;22.71;100.00;98054.66;5015776;28;20300;-60
2021/08/13 10:36:57;;;;;;;3.27;3.00;;;;;;;22.68;100.00;98046.88;5015106;28;20198;-60
2021/08/13 10:39:26;;;;;;;3.07;2.87;;;;;;;22.67;100.00;98046.00;5018388;28;20259;-61
2021/08/13 10:41:54;;;;;;;3.33;3.03;;;;;;;22.71;100.00;98050.38;4999124;28;20232;-61
2021/08/13 10:44:22;;;;;;;3.13;2.83;;;;;;;22.71;100.00;98044.41;5013098;28;20347;-60
2021/08/13 10:46:49;;;;;;;3.00;2.80;;;;;;;22.62;100.00;98021.91;4998658;28;20210;-61
2021/08/13 10:49:17;;;;;;;4.70;2.77;;;;;;;22.65;100.00;98027.13;4999128;28;20241;-61
2021/08/13 10:51:44;;;;;;;3.40;3.10;;;;;;;22.72;100.00;98033.34;5020064;28;20229;-60
2021/08/13 10:54:14;;;;;;;3.20;3.00;;;;;;;22.72;100.00;98041.03;5021383;28;20238;-60
2021/08/13 10:56:42;;;;;;;2.93;2.73;;;;;;;22.71;100.00;98042.69;5020047;28;20236;-61
2021/08/13 10:59:09;;;;;;;3.27;3.07;;;;;;;22.72;100.00;98038.47;5011372;28;20575;-61
2021/08/13 11:01:35;;;;;;;3.27;3.07;;;;;;;22.67;100.00;98025.50;5017190;28;20260;-61
2021/08/13 11:04:04;;;;;;;3.10;2.90;;;;;;;22.72;100.00;98033.34;5003801;28;20325;-61
2021/08/13 11:06:48;;;;;;;2.83;2.60;;;;;;;22.72;100.00;98029.09;5020399;28;20504;-60
2021/08/13 11:09:21;;;;;;;3.50;3.20;;;;;;;22.72;100.00;98025.66;5022268;28;20298;-60
2021/08/13 11:11:54;;;;;;;3.53;3.23;;;;;;;22.72;100.00;98029.09;5020902;28;20201;-60
2021/08/13 11:14:24;;;;;;;3.23;3.00;;;;;;;22.73;100.00;98014.56;5020752;28;20677;-60
2021/08/13 11:16:51;;;;;;;3.47;2.83;;;;;;;22.71;100.00;98011.94;5017990;28;20301;-60
2021/08/13 11:19:19;;;;;;;3.13;2.93;;;;;;;22.67;100.00;97994.75;5019393;28;20225;-62
2021/08/13 11:21:51;;;;;;;3.20;3.00;;;;;;;22.69;100.00;98005.06;5020116;28;20203;-60
2021/08/13 11:24:19;;;;;;;3.30;3.00;;;;;;;22.66;100.00;98013.53;5020568;28;20248;-60
2021/08/13 11:26:55;;;;;;;2.97;2.70;;;;;;;22.65;100.00;98013.47;5013244;28;20710;-61
2021/08/13 11:29:33;;;;;;;3.60;3.30;;;;;;;22.64;100.00;98011.72;5019780;28;20259;-61
2021/08/13 11:32:21;;;;;;;3.07;2.87;;;;;;;22.63;100.00;98009.97;5017428;28;20293;-61
2021/08/13 11:35:01;;;;;;;3.33;3.03;;;;;;;22.55;100.00;97991.78;5010642;28;20249;-62